Time;durP1;ratioP1;P1;durP2;ratioP2;P2;SDS_P1;SDS_P2;PMS_P1;PMS_P2;Temp;Humidity;BMP_temperature;BMP_pressure;BME280_temperature;BME280_humidity;BME280_pressure;Samples;Min_cycle;Max_cycle;Signal;HPM_P1;HPM_P2
2021/10/03 00:02:12;;;;;;;16.38;6.68;;;17.60;99.90;;;;;;4864262;29;20096;-81
2021/10/03 00:04:42;;;;;;;17.20;5.50;;;17.60;99.90;;;;;;4870383;29;20029;-82
2021/10/03 00:07:09;;;;;;;17.92;6.07;;;17.60;99.90;;;;;;4869736;29;20048;-82
2021/10/03 00:09:36;;;;;;;21.33;5.78;;;17.60;99.90;;;;;;4862305;29;20053;-81
2021/10/03 00:12:02;;;;;;;15.43;5.30;;;17.60;99.90;;;;;;4868397;29;20321;-82
2021/10/03 00:14:27;;;;;;;17.02;5.65;;;17.60;99.90;;;;;;4856650;29;20069;-82
2021/10/03 00:16:54;;;;;;;13.23;5.28;;;17.60;99.90;;;;;;4859196;29;20017;-82
2021/10/03 00:19:21;;;;;;;10.68;5.10;;;17.70;99.90;;;;;;4861379;29;20088;-82
2021/10/03 00:21:47;;;;;;;12.98;4.93;;;17.70;99.90;;;;;;4858611;29;20046;-82
2021/10/03 00:24:12;;;;;;;13.63;5.10;;;17.70;99.90;;;;;;4853602;29;20030;-83
2021/10/03 00:26:39;;;;;;;15.32;4.90;;;17.70;99.90;;;;;;4851679;29;20050;-83
2021/10/03 00:29:05;;;;;;;16.90;6.35;;;17.70;99.90;;;;;;4858087;29;20033;-82
2021/10/03 00:31:32;;;;;;;12.20;4.88;;;17.70;99.90;;;;;;4863960;29;20026;-83
2021/10/03 00:33:58;;;;;;;12.50;4.45;;;17.80;99.90;;;;;;4867261;29;20033;-83
2021/10/03 00:36:23;;;;;;;15.05;5.00;;;17.80;99.90;;;;;;4869682;29;20021;-83
2021/10/03 00:38:49;;;;;;;11.80;4.63;;;17.80;99.90;;;;;;4869581;29;20466;-83
2021/10/03 00:41:16;;;;;;;13.70;4.65;;;17.80;99.90;;;;;;4869580;29;20301;-83
2021/10/03 00:43:42;;;;;;;11.95;4.18;;;17.80;99.90;;;;;;4869006;29;20029;-84
2021/10/03 00:46:08;;;;;;;15.95;4.93;;;17.80;99.90;;;;;;4852551;29;20235;-84
2021/10/03 00:48:34;;;;;;;12.45;4.65;;;17.80;99.90;;;;;;4844913;29;20132;-84
2021/10/03 00:51:00;;;;;;;14.05;4.63;;;17.90;99.90;;;;;;4844055;29;20325;-84
2021/10/03 00:53:29;;;;;;;15.45;5.40;;;17.90;99.90;;;;;;4869023;29;20098;-84
2021/10/03 00:55:56;;;;;;;15.75;4.93;;;17.80;99.90;;;;;;4867970;29;20033;-84
2021/10/03 00:58:22;;;;;;;13.35;5.03;;;17.90;99.90;;;;;;4869548;29;20018;-83
2021/10/03 01:00:49;;;;;;;11.13;5.43;;;17.90;99.90;;;;;;4867734;29;20056;-84
2021/10/03 01:03:15;;;;;;;12.52;5.03;;;17.90;99.90;;;;;;4851004;29;20025;-84
2021/10/03 01:05:41;;;;;;;10.77;4.57;;;18.00;99.90;;;;;;4869320;29;20060;-84
2021/10/03 01:08:08;;;;;;;10.07;4.78;;;18.00;99.90;;;;;;4852224;29;20478;-84
2021/10/03 01:10:34;;;;;;;13.02;4.82;;;18.00;99.90;;;;;;4860252;29;20124;-83
2021/10/03 01:13:12;;;;;;;10.70;4.60;;;18.10;99.90;;;;;;4866411;29;20034;-84
2021/10/03 01:15:41;;;;;;;13.32;4.40;;;18.20;99.90;;;;;;4846402;29;20339;-84
2021/10/03 01:18:08;;;;;;;15.75;4.78;;;18.20;99.90;;;;;;4855342;29;20037;-83
2021/10/03 01:20:35;;;;;;;14.80;4.57;;;18.20;99.90;;;;;;4863274;29;20313;-83
2021/10/03 01:23:03;;;;;;;15.18;4.97;;;18.20;99.90;;;;;;4848983;29;20112;-83
2021/10/03 01:25:31;;;;;;;17.48;4.85;;;18.30;99.90;;;;;;4856729;29;20093;-84
2021/10/03 01:27:57;;;;;;;16.45;4.53;;;18.30;99.90;;;;;;4867720;29;20231;-83
2021/10/03 01:30:24;;;;;;;9.90;4.28;;;18.40;99.90;;;;;;4860850;29;20025;-84
2021/10/03 01:32:50;;;;;;;12.95;5.45;;;18.30;99.90;;;;;;4866264;29;20032;-83
2021/10/03 01:35:16;;;;;;;16.58;5.25;;;18.30;99.90;;;;;;4868605;29;20214;-84
2021/10/03 01:37:42;;;;;;;12.98;5.22;;;18.30;99.90;;;;;;4868845;29;20087;-84
2021/10/03 01:40:10;;;;;;;13.32;5.13;;;18.20;99.90;;;;;;4868127;29;20033;-84
2021/10/03 01:42:36;;;;;;;18.85;5.60;;;18.20;99.90;;;;;;4868344;29;20309;-84
2021/10/03 01:45:05;;;;;;;12.82;4.95;;;18.20;99.90;;;;;;4852484;29;20109;-84
2021/10/03 01:47:31;;;;;;;22.05;5.18;;;18.30;99.90;;;;;;4868136;29;20348;-84
2021/10/03 01:49:56;;;;;;;26.85;6.45;;;18.30;99.90;;;;;;4868159;29;20026;-84
2021/10/03 01:52:22;;;;;;;28.50;6.45;;;18.40;99.90;;;;;;4868736;29;20033;-83
2021/10/03 01:54:48;;;;;;;31.70;5.75;;;18.40;99.90;;;;;;4851227;29;20041;-82
2021/10/03 01:57:14;;;;;;;29.35;6.05;;;18.50;99.90;;;;;;4867968;29;20017;-82
2021/10/03 01:59:41;;;;;;;27.80;5.97;;;18.60;99.90;;;;;;4851496;29;20033;-82
2021/10/03 02:02:07;;;;;;;33.92;6.97;;;18.80;99.90;;;;;;4868184;29;20077;-82
2021/10/03 02:04:33;;;;;;;44.38;8.07;;;18.80;99.90;;;;;;4849068;29;20044;-82
2021/10/03 02:06:59;;;;;;;36.25;7.50;;;18.80;99.90;;;;;;4858857;29;20041;-81
2021/10/03 02:09:28;;;;;;;49.67;8.20;;;18.80;99.90;;;;;;4857406;29;20230;-82
2021/10/03 02:11:56;;;;;;;38.10;7.78;;;18.80;99.90;;;;;;4866719;29;20025;-81
2021/10/03 02:14:30;;;;;;;40.20;8.85;;;18.80;99.90;;;;;;4862121;29;20342;-81
2021/10/03 02:16:57;;;;;;;49.63;9.23;;;18.80;99.90;;;;;;4867940;29;20391;-81
2021/10/03 02:19:25;;;;;;;44.17;7.25;;;18.70;99.90;;;;;;4867706;29;20182;-81
2021/10/03 02:21:52;;;;;;;40.63;7.68;;;18.80;99.90;;;;;;4857982;29;20032;-82
2021/10/03 02:24:18;;;;;;;42.42;7.72;;;18.90;99.90;;;;;;4867708;29;20313;-84
2021/10/03 02:26:47;;;;;;;62.17;9.75;;;18.80;99.90;;;;;;4867267;29;20088;-84
2021/10/03 02:29:12;;;;;;;24.60;3.38;;;18.70;99.90;;;;;;4866556;29;20022;-83
2021/10/03 02:31:38;;;;;;;31.23;4.15;;;18.10;99.90;;;;;;4868419;29;20040;-83
2021/10/03 02:34:04;;;;;;;29.40;4.18;;;17.50;99.90;;;;;;4863257;29;20047;-82
2021/10/03 02:36:31;;;;;;;53.20;5.20;;;17.00;99.90;;;;;;4867897;29;20208;-82
2021/10/03 02:38:57;;;;;;;49.53;5.97;;;16.80;99.90;;;;;;4868229;29;20078;-82
2021/10/03 02:41:23;;;;;;;52.63;5.53;;;16.60;99.90;;;;;;4861890;29;20085;-84
2021/10/03 02:43:54;;;;;;;49.67;5.13;;;16.50;99.90;;;;;;4866418;29;20336;-85
2021/10/03 02:46:21;;;;;;;77.53;7.30;;;16.40;99.90;;;;;;4843291;29;20022;-85
2021/10/03 02:48:51;;;;;;;52.25;5.15;;;16.40;99.90;;;;;;4861256;29;20029;-85
2021/10/03 02:51:22;;;;;;;47.67;4.97;;;16.40;99.90;;;;;;4849788;29;20021;-84
2021/10/03 02:53:49;;;;;;;33.10;3.70;;;16.30;99.90;;;;;;4866426;29;20314;-85
2021/10/03 02:56:20;;;;;;;34.65;3.33;;;16.30;99.90;;;;;;4850039;29;20093;-85
2021/10/03 02:58:46;;;;;;;31.98;3.85;;;16.30;99.90;;;;;;4865171;29;20044;-84
2021/10/03 03:01:12;;;;;;;39.88;3.88;;;16.30;99.90;;;;;;4867145;29;20026;-85
2021/10/03 03:03:37;;;;;;;41.35;3.70;;;16.40;99.90;;;;;;4865015;29;20026;-83
2021/10/03 03:06:05;;;;;;;41.20;4.72;;;16.40;99.90;;;;;;4867195;29;20069;-83
2021/10/03 03:08:31;;;;;;;34.03;3.78;;;16.40;99.90;;;;;;4867086;29;20222;-83
2021/10/03 03:10:56;;;;;;;33.30;3.97;;;16.50;99.90;;;;;;4855803;29;20040;-83
2021/10/03 03:13:22;;;;;;;31.15;3.50;;;16.50;99.90;;;;;;4863166;29;20049;-83
2021/10/03 03:15:48;;;;;;;30.48;2.92;;;16.50;99.90;;;;;;4849544;29;20117;-83
2021/10/03 03:18:13;;;;;;;32.63;3.42;;;16.60;99.90;;;;;;4855486;29;20026;-83
2021/10/03 03:20:39;;;;;;;33.25;3.28;;;16.60;99.90;;;;;;4860520;29;20017;-83
2021/10/03 03:23:05;;;;;;;32.40;3.03;;;16.70;99.90;;;;;;4862096;29;20215;-83
2021/10/03 03:25:31;;;;;;;24.35;2.95;;;16.70;99.90;;;;;;4855763;29;20014;-83
2021/10/03 03:27:56;;;;;;;26.67;2.53;;;16.70;99.90;;;;;;4853282;29;20033;-83
2021/10/03 03:30:22;;;;;;;28.35;2.78;;;16.70;99.90;;;;;;4853336;29;20330;-83
2021/10/03 03:32:49;;;;;;;32.22;3.65;;;16.70;99.90;;;;;;4853515;29;20041;-83
2021/10/03 03:35:14;;;;;;;32.83;3.53;;;16.70;99.90;;;;;;4857979;29;20034;-82
2021/10/03 03:37:40;;;;;;;29.98;3.42;;;16.70;99.90;;;;;;4846885;29;20097;-82
2021/10/03 03:40:10;;;;;;;28.30;3.13;;;16.80;99.90;;;;;;4857832;29;20088;-82
2021/10/03 03:42:36;;;;;;;27.45;2.47;;;16.70;99.90;;;;;;4863134;29;20097;-82
2021/10/03 03:45:02;;;;;;;28.92;3.40;;;16.70;99.90;;;;;;4859985;29;20029;-82
2021/10/03 03:47:28;;;;;;;27.40;2.25;;;16.70;99.90;;;;;;4867027;29;20246;-82
2021/10/03 03:49:55;;;;;;;33.33;3.42;;;16.70;99.90;;;;;;4867021;29;20312;-83
2021/10/03 03:52:21;;;;;;;19.92;2.17;;;16.80;99.90;;;;;;4859570;29;20093;-83
2021/10/03 03:54:47;;;;;;;29.95;2.80;;;16.80;99.90;;;;;;4866855;29;20037;-82
2021/10/03 03:57:13;;;;;;;25.25;4.13;;;16.80;99.90;;;;;;4867222;29;20143;-82
2021/10/03 03:59:39;;;;;;;23.13;4.40;;;16.90;99.90;;;;;;4850424;29;20226;-82
2021/10/03 04:02:05;;;;;;;27.42;3.25;;;16.90;99.90;;;;;;4868391;29;20028;-83
2021/10/03 04:04:31;;;;;;;35.63;4.40;;;16.90;99.90;;;;;;4852858;29;20025;-83
2021/10/03 04:06:56;;;;;;;34.85;2.85;;;16.90;99.90;;;;;;4870185;29;20057;-82
2021/10/03 04:09:22;;;;;;;39.97;3.85;;;17.00;99.90;;;;;;4870119;29;20314;-82
2021/10/03 04:11:50;;;;;;;41.75;3.90;;;16.90;99.90;;;;;;4869762;29;20034;-83
2021/10/03 04:14:16;;;;;;;35.17;4.13;;;17.00;99.90;;;;;;4869972;29;20037;-84
2021/10/03 04:16:41;;;;;;;36.05;4.25;;;17.00;99.90;;;;;;4869674;29;20258;-83
2021/10/03 04:19:07;;;;;;;37.95;3.53;;;17.00;99.90;;;;;;4869709;29;20034;-82
2021/10/03 04:21:32;;;;;;;39.80;4.25;;;17.00;99.90;;;;;;4869609;29;20032;-82
2021/10/03 04:23:58;;;;;;;40.22;3.50;;;17.00;99.90;;;;;;4863997;29;20026;-82
2021/10/03 04:26:25;;;;;;;41.03;3.92;;;17.00;99.90;;;;;;4869609;29;20094;-82
2021/10/03 04:28:54;;;;;;;46.55;3.95;;;17.00;99.90;;;;;;4869659;29;20037;-82
2021/10/03 04:31:19;;;;;;;41.42;4.20;;;17.00;99.90;;;;;;4869526;29;20049;-82
2021/10/03 04:33:45;;;;;;;31.35;3.30;;;17.00;99.90;;;;;;4869849;29;20092;-82
2021/10/03 04:36:11;;;;;;;37.35;3.85;;;17.00;99.90;;;;;;4862368;29;20045;-82
2021/10/03 04:38:38;;;;;;;38.13;5.35;;;17.00;99.90;;;;;;4861162;29;20054;-82
2021/10/03 04:41:04;;;;;;;38.10;3.95;;;17.00;99.90;;;;;;4857545;29;20301;-82
2021/10/03 04:43:30;;;;;;;32.58;3.92;;;17.00;99.90;;;;;;4864535;29;20041;-82
2021/10/03 04:45:56;;;;;;;38.72;3.70;;;17.00;99.90;;;;;;4857608;29;20068;-82
2021/10/03 04:48:22;;;;;;;26.55;3.80;;;17.00;99.90;;;;;;4867829;29;20266;-82
2021/10/03 04:50:47;;;;;;;33.03;3.75;;;17.00;99.90;;;;;;4869400;29;20030;-82
2021/10/03 04:53:13;;;;;;;32.78;3.25;;;16.90;99.90;;;;;;4860023;29;20185;-82
2021/10/03 04:55:39;;;;;;;44.17;3.75;;;16.90;99.90;;;;;;4869496;29;20100;-82
2021/10/03 04:58:05;;;;;;;41.25;4.20;;;16.90;99.90;;;;;;4869080;29;20052;-81
2021/10/03 05:00:30;;;;;;;38.95;4.70;;;16.90;99.90;;;;;;4869686;29;20029;-81
2021/10/03 05:02:56;;;;;;;40.35;4.47;;;16.90;99.90;;;;;;4868989;29;20089;-81
2021/10/03 05:05:23;;;;;;;35.25;3.95;;;16.90;99.90;;;;;;4865115;29;20060;-82
2021/10/03 05:07:49;;;;;;;41.75;4.30;;;16.90;99.90;;;;;;4857819;29;20029;-82
2021/10/03 05:10:15;;;;;;;34.60;3.67;;;16.90;99.90;;;;;;4864575;29;20625;-81
2021/10/03 05:12:41;;;;;;;38.38;4.55;;;16.90;99.90;;;;;;4867847;29;20217;-82
2021/10/03 05:15:06;;;;;;;36.90;3.90;;;16.90;99.90;;;;;;4861804;29;20034;-84
2021/10/03 05:17:32;;;;;;;44.63;4.20;;;16.90;99.90;;;;;;4868316;29;20021;-83
2021/10/03 05:19:58;;;;;;;58.47;5.20;;;16.90;99.90;;;;;;4868679;29;20110;-84
2021/10/03 05:22:24;;;;;;;17.05;1.95;;;16.80;99.90;;;;;;4868796;29;20032;-88
2021/10/03 05:24:53;;;;;;;26.58;2.78;;;16.30;99.90;;;;;;4868675;29;20045;-86
2021/10/03 05:27:19;;;;;;;24.92;2.17;;;16.00;99.90;;;;;;4869072;29;20043;-86
2021/10/03 05:29:46;;;;;;;28.80;3.20;;;15.80;99.90;;;;;;4859022;29;20037;-85
2021/10/03 05:32:12;;;;;;;22.05;2.72;;;15.70;99.90;;;;;;4855805;29;20073;-86
2021/10/03 05:34:38;;;;;;;25.80;2.60;;;15.40;99.90;;;;;;4857298;29;20251;-87
2021/10/03 05:37:04;;;;;;;30.48;2.40;;;15.30;99.90;;;;;;4856512;29;20033;-85
2021/10/03 05:39:30;;;;;;;18.38;2.35;;;15.10;99.90;;;;;;4858047;29;20025;-85
2021/10/03 05:41:56;;;;;;;15.88;1.90;;;15.00;99.90;;;;;;4858206;29;20361;-84
2021/10/03 05:44:22;;;;;;;12.30;1.73;;;14.80;99.90;;;;;;4857644;29;20042;-85
2021/10/03 05:46:48;;;;;;;14.90;1.13;;;14.80;99.90;;;;;;4856752;29;20060;-85
2021/10/03 05:49:14;;;;;;;15.95;1.40;;;14.80;99.90;;;;;;4856309;29;20025;-86
2021/10/03 05:51:40;;;;;;;12.60;1.95;;;14.80;99.90;;;;;;4855705;29;20034;-84
2021/10/03 05:54:06;;;;;;;13.00;1.48;;;14.80;99.90;;;;;;4857771;29;20080;-84
2021/10/03 05:56:35;;;;;;;14.95;1.38;;;14.80;99.90;;;;;;4834811;29;20029;-84
2021/10/03 05:59:03;;;;;;;17.60;1.92;;;14.80;99.90;;;;;;4848288;29;20026;-84
2021/10/03 06:01:29;;;;;;;15.65;2.20;;;14.80;99.90;;;;;;4852292;29;20129;-84
2021/10/03 06:03:56;;;;;;;20.20;2.25;;;14.80;99.90;;;;;;4840614;29;20128;-86
2021/10/03 06:06:22;;;;;;;12.70;1.77;;;14.70;99.90;;;;;;4849189;29;20014;-86
2021/10/03 06:08:50;;;;;;;21.33;2.50;;;14.80;99.90;;;;;;4844601;29;20061;-85
2021/10/03 06:11:16;;;;;;;16.42;1.67;;;14.80;99.90;;;;;;4850410;29;20556;-84
2021/10/03 06:13:42;;;;;;;19.67;1.90;;;14.80;99.90;;;;;;4857357;29;20033;-85
2021/10/03 06:16:08;;;;;;;18.17;2.00;;;14.80;99.90;;;;;;4848090;29;20029;-84
2021/10/03 06:18:33;;;;;;;26.33;2.95;;;14.80;99.90;;;;;;4857348;29;20029;-84
2021/10/03 06:20:59;;;;;;;18.70;2.55;;;14.80;99.90;;;;;;4856152;29;20419;-85
2021/10/03 06:23:25;;;;;;;11.75;1.33;;;14.80;99.90;;;;;;4846459;29;20465;-85
2021/10/03 06:25:51;;;;;;;16.05;1.75;;;14.70;99.90;;;;;;4854520;29;20037;-86
2021/10/03 06:28:17;;;;;;;18.08;1.95;;;14.60;99.90;;;;;;4857455;29;20044;-85
2021/10/03 06:30:43;;;;;;;16.02;1.48;;;14.60;99.90;;;;;;4857376;29;20026;-85
2021/10/03 06:33:09;;;;;;;10.98;1.60;;;14.60;99.90;;;;;;4856064;29;20390;-85
2021/10/03 06:35:35;;;;;;;19.33;1.83;;;14.50;99.90;;;;;;4856238;29;20041;-84
2021/10/03 06:38:00;;;;;;;13.95;1.65;;;14.50;99.90;;;;;;4857418;29;20114;-85
2021/10/03 06:40:26;;;;;;;11.85;1.23;;;14.40;99.90;;;;;;4857471;29;20109;-84
2021/10/03 06:42:52;;;;;;;9.00;0.75;;;14.30;99.90;;;;;;4857075;29;20487;-85
2021/10/03 06:45:18;;;;;;;3.70;0.40;;;14.20;99.90;;;;;;4857320;29;20112;-86
2021/10/03 06:47:44;;;;;;;5.05;0.40;;;14.00;99.90;;;;;;4840426;29;20599;-87
2021/10/03 06:50:11;;;;;;;5.95;0.43;;;14.10;99.90;;;;;;4857065;29;20031;-87
2021/10/03 06:52:37;;;;;;;5.25;0.47;;;14.00;99.90;;;;;;4857106;29;20044;-88
2021/10/03 06:55:03;;;;;;;11.13;0.80;;;14.00;99.90;;;;;;4857190;29;20402;-88
2021/10/03 06:57:29;;;;;;;2.38;0.40;;;14.00;99.90;;;;;;4857011;29;20033;-89
2021/10/03 06:59:55;;;;;;;6.18;0.95;;;14.00;99.90;;;;;;4840461;29;20453;-88
2021/10/03 07:02:24;;;;;;;7.22;0.98;;;14.00;99.90;;;;;;4857341;29;20049;-89
2021/10/03 07:04:50;;;;;;;2.60;0.30;;;14.00;99.90;;;;;;4856686;29;20053;-90
2021/10/03 07:07:17;;;;;;;3.92;0.45;;;14.00;99.90;;;;;;4855143;29;20033;-89
2021/10/03 07:09:43;;;;;;;2.05;0.20;;;14.10;99.90;;;;;;4838037;29;20036;-89
2021/10/03 07:12:09;;;;;;;2.03;0.28;;;14.10;99.90;;;;;;4850284;29;20022;-89
2021/10/03 07:14:34;;;;;;;4.57;0.47;;;14.10;99.90;;;;;;4855742;29;20422;-89
2021/10/03 07:17:00;;;;;;;3.35;0.30;;;14.20;99.90;;;;;;4849258;29;20029;-89
2021/10/03 07:19:26;;;;;;;7.55;0.95;;;14.20;99.90;;;;;;4856744;29;20057;-89
2021/10/03 07:21:52;;;;;;;1.15;0.20;;;14.30;99.90;;;;;;4856673;29;20033;-89
2021/10/03 07:24:17;;;;;;;1.45;0.30;;;14.30;99.90;;;;;;4845894;29;20034;-88
2021/10/03 07:26:43;;;;;;;1.77;0.28;;;14.30;99.90;;;;;;4856922;29;20046;-88
2021/10/03 07:29:09;;;;;;;2.78;0.30;;;14.30;99.90;;;;;;4846493;29;20061;-89
2021/10/03 07:31:35;;;;;;;3.85;0.60;;;14.30;99.90;;;;;;4838764;29;20116;-88
2021/10/03 07:34:01;;;;;;;2.80;0.45;;;14.40;99.90;;;;;;4839986;29;20048;-88
2021/10/03 07:36:27;;;;;;;2.83;0.50;;;14.30;99.90;;;;;;4857717;29;20407;-88
2021/10/03 07:38:52;;;;;;;2.50;0.88;;;14.30;99.90;;;;;;4860309;29;20033;-88
2021/10/03 07:41:20;;;;;;;2.15;0.50;;;14.30;99.90;;;;;;4859642;29;20026;-88
2021/10/03 07:43:47;;;;;;;3.80;0.60;;;14.40;99.90;;;;;;4852808;29;20026;-88
2021/10/03 07:46:13;;;;;;;3.00;0.90;;;14.40;99.90;;;;;;4843624;29;20025;-88
2021/10/03 07:48:38;;;;;;;4.35;0.70;;;14.50;99.90;;;;;;4843728;29;20040;-88
2021/10/03 07:51:04;;;;;;;5.38;0.80;;;14.50;99.90;;;;;;4860294;29;20523;-88
2021/10/03 07:53:30;;;;;;;9.88;1.13;;;14.60;99.90;;;;;;4859835;29;20502;-88
2021/10/03 07:55:56;;;;;;;7.30;0.80;;;14.70;99.90;;;;;;4852133;29;20038;-88
2021/10/03 07:58:22;;;;;;;3.35;0.73;;;14.80;99.90;;;;;;4844117;29;20033;-89
2021/10/03 08:00:48;;;;;;;4.95;0.98;;;14.90;99.90;;;;;;4857277;29;20036;-95
2021/10/03 08:03:14;;;;;;;7.43;1.10;;;15.00;99.90;;;;;;4843726;29;20504;-96
2021/10/03 08:05:40;;;;;;;8.65;0.88;;;14.90;99.90;;;;;;4862041;29;20022;-89
2021/10/03 08:08:06;;;;;;;12.45;1.30;;;14.90;99.90;;;;;;4856192;29;20034;-89
2021/10/03 08:10:32;;;;;;;9.52;1.30;;;15.00;99.90;;;;;;4856171;29;20026;-90
2021/10/03 08:12:58;;;;;;;8.98;1.45;;;15.00;99.90;;;;;;4860142;29;20025;-89
2021/10/03 08:15:27;;;;;;;13.55;1.27;;;14.90;99.90;;;;;;4863282;29;20360;-87
2021/10/03 08:17:53;;;;;;;6.25;1.17;;;14.80;99.90;;;;;;4859211;29;20029;-85
2021/10/03 08:20:19;;;;;;;14.00;1.40;;;14.60;99.90;;;;;;4859335;29;20026;-84
2021/10/03 08:22:45;;;;;;;13.65;2.50;;;14.30;99.90;;;;;;4858238;29;20025;-85
2021/10/03 08:25:11;;;;;;;16.35;2.25;;;14.10;99.90;;;;;;4859141;29;20066;-85
2021/10/03 08:27:37;;;;;;;17.90;3.13;;;14.00;99.90;;;;;;4859385;29;20120;-84
2021/10/03 08:30:05;;;;;;;19.13;1.60;;;14.00;99.90;;;;;;4859251;29;20029;-84
2021/10/03 08:32:31;;;;;;;7.22;1.00;;;13.90;99.90;;;;;;4860051;29;20029;-86
2021/10/03 08:34:57;;;;;;;19.25;1.60;;;13.90;99.90;;;;;;4862529;29;20037;-87
2021/10/03 08:37:23;;;;;;;11.38;1.73;;;14.00;99.90;;;;;;4858624;29;20499;-85
2021/10/03 08:39:49;;;;;;;8.73;0.93;;;14.00;99.90;;;;;;4859247;29;20040;-87
2021/10/03 08:42:15;;;;;;;5.90;1.08;;;14.10;99.90;;;;;;4859062;29;20479;-88
2021/10/03 08:44:41;;;;;;;7.90;0.98;;;14.30;99.90;;;;;;4860274;29;20029;-89
2021/10/03 08:47:07;;;;;;;8.57;1.33;;;14.30;99.90;;;;;;4841825;29;20029;-89
2021/10/03 08:49:33;;;;;;;14.75;1.77;;;14.40;99.90;;;;;;4859242;29;20026;-85
2021/10/03 08:51:59;;;;;;;10.32;1.05;;;14.50;99.90;;;;;;4862723;29;20109;-84
2021/10/03 08:54:24;;;;;;;12.38;1.50;;;14.60;99.90;;;;;;4858704;29;20037;-83
2021/10/03 08:56:50;;;;;;;9.90;1.10;;;14.50;99.90;;;;;;4859033;29;20029;-84
2021/10/03 08:59:16;;;;;;;5.05;1.17;;;14.50;99.90;;;;;;4858570;29;20178;-85
2021/10/03 09:01:48;;;;;;;6.78;0.90;;;14.60;99.90;;;;;;4862997;29;20082;-89
2021/10/03 09:04:31;;;;;;;6.28;0.90;;;14.50;99.90;;;;;;4863992;29;20029;-89
2021/10/03 09:06:59;;;;;;;5.60;0.82;;;14.40;99.90;;;;;;4859017;29;20053;-90
2021/10/03 09:09:49;;;;;;;7.43;1.40;;;14.50;99.90;;;;;;4859458;29;20033;-89
2021/10/03 09:12:35;;;;;;;8.77;1.20;;;14.50;99.90;;;;;;4864489;29;20077;-90
2021/10/03 09:15:29;;;;;;;9.13;1.80;;;14.60;99.90;;;;;;4843444;29;20109;-89
2021/10/03 09:17:56;;;;;;;8.38;0.77;;;14.70;99.90;;;;;;4845031;29;20037;-85
2021/10/03 09:20:24;;;;;;;7.38;2.05;;;14.80;99.90;;;;;;4841368;29;20531;-89
2021/10/03 09:23:17;;;;;;;6.20;1.08;;;14.90;99.90;;;;;;4857435;29;20647;-89
2021/10/03 09:25:52;;;;;;;8.60;1.05;;;15.10;99.90;;;;;;4846892;29;20061;-88
2021/10/03 09:28:22;;;;;;;12.50;1.50;;;15.20;99.90;;;;;;4857640;29;20126;-88
2021/10/03 09:31:07;;;;;;;11.00;1.05;;;15.30;99.90;;;;;;4864526;29;20029;-88
2021/10/03 09:33:52;;;;;;;8.48;0.93;;;15.40;99.90;;;;;;4853869;29;20034;-88
2021/10/03 09:36:43;;;;;;;10.38;1.35;;;15.50;99.90;;;;;;4858599;29;20030;-89
2021/10/03 09:39:09;;;;;;;12.10;1.25;;;15.50;99.90;;;;;;4846810;29;20025;-87
2021/10/03 09:41:38;;;;;;;5.68;1.27;;;15.50;99.90;;;;;;4856486;29;20166;-89
2021/10/03 09:44:09;;;;;;;11.50;1.63;;;15.60;99.90;;;;;;4854221;29;20053;-89
2021/10/03 09:46:49;;;;;;;7.25;1.45;;;15.60;99.90;;;;;;4862705;29;20029;-88
2021/10/03 09:49:30;;;;;;;4.93;0.90;;;15.70;99.90;;;;;;4862191;29;20558;-86
2021/10/03 09:51:56;;;;;;;5.28;0.95;;;15.80;99.90;;;;;;4858333;29;20021;-88
2021/10/03 09:54:24;;;;;;;7.82;1.10;;;15.90;99.90;;;;;;4858574;29;20491;-89
2021/10/03 09:56:51;;;;;;;9.77;2.45;;;16.00;99.90;;;;;;4851300;29;20030;-88
2021/10/03 09:59:18;;;;;;;8.75;2.33;;;16.00;99.90;;;;;;4854796;29;20029;-85
2021/10/03 10:01:45;;;;;;;10.68;1.27;;;16.00;99.90;;;;;;4857573;29;20070;-85
2021/10/03 10:04:13;;;;;;;9.90;1.67;;;16.20;99.90;;;;;;4845069;29;20085;-85
2021/10/03 10:06:39;;;;;;;8.63;0.95;;;16.20;99.90;;;;;;4859182;29;20029;-86
2021/10/03 10:09:14;;;;;;;7.53;1.17;;;16.00;99.90;;;;;;4847550;29;20392;-85
2021/10/03 10:11:57;;;;;;;11.77;1.10;;;15.90;99.90;;;;;;4861839;29;20124;-85
2021/10/03 10:14:32;;;;;;;7.50;1.20;;;15.70;99.90;;;;;;4859601;29;20037;-85
2021/10/03 10:17:00;;;;;;;10.43;1.63;;;15.50;99.90;;;;;;4856616;29;20420;-85
2021/10/03 10:19:33;;;;;;;5.80;1.20;;;15.70;99.90;;;;;;4856410;29;20033;-86
2021/10/03 10:22:20;;;;;;;11.82;1.63;;;15.60;99.90;;;;;;4853374;29;20112;-86
2021/10/03 10:24:54;;;;;;;8.68;0.95;;;15.80;99.90;;;;;;4849939;29;20030;-85
2021/10/03 10:27:25;;;;;;;6.05;1.40;;;15.80;99.90;;;;;;4855345;29;20101;-86
2021/10/03 10:29:52;;;;;;;5.32;1.10;;;15.70;99.90;;;;;;4847596;29;20046;-85
2021/10/03 10:32:19;;;;;;;8.95;1.25;;;15.70;99.90;;;;;;4845538;29;20209;-85
2021/10/03 10:35:09;;;;;;;6.53;0.77;;;15.50;99.90;;;;;;4848117;29;20065;-85
2021/10/03 10:37:51;;;;;;;6.45;0.90;;;15.50;99.90;;;;;;4854914;29;20025;-86
2021/10/03 10:40:25;;;;;;;10.75;1.40;;;15.50;99.90;;;;;;4856187;29;20354;-86
2021/10/03 10:42:52;;;;;;;8.73;0.98;;;15.60;99.90;;;;;;4844079;29;20121;-86
2021/10/03 10:45:27;;;;;;;10.43;2.40;;;15.70;99.90;;;;;;4858628;29;20030;-85
2021/10/03 10:48:11;;;;;;;7.38;1.70;;;15.90;99.90;;;;;;4857026;29;20041;-85
2021/10/03 10:50:49;;;;;;;8.55;0.90;;;16.00;99.90;;;;;;4859803;29;20030;-85
2021/10/03 10:53:21;;;;;;;8.25;1.00;;;16.10;99.90;;;;;;4862435;29;20034;-86
2021/10/03 10:56:06;;;;;;;8.07;0.70;;;16.20;99.90;;;;;;4859551;29;20040;-86
2021/10/03 10:58:48;;;;;;;5.15;0.95;;;16.20;99.90;;;;;;4853121;29;20038;-86
2021/10/03 11:01:14;;;;;;;5.82;0.85;;;16.10;99.90;;;;;;4855509;29;20632;-86
2021/10/03 11:03:43;;;;;;;5.10;0.80;;;16.10;99.90;;;;;;4854883;29;20022;-85
2021/10/03 11:06:33;;;;;;;7.78;1.40;;;16.10;99.90;;;;;;4855053;29;20021;-86
2021/10/03 11:09:06;;;;;;;5.55;1.10;;;16.10;99.90;;;;;;4847905;29;20041;-85
2021/10/03 11:11:34;;;;;;;8.55;0.95;;;16.20;99.90;;;;;;4854330;29;20064;-86
2021/10/03 11:14:21;;;;;;;7.63;1.02;;;16.30;99.90;;;;;;4859006;29;20026;-88
2021/10/03 11:16:50;;;;;;;6.63;1.10;;;16.40;99.90;;;;;;4869082;29;20029;-93
2021/10/03 11:19:22;;;;;;;7.35;0.90;;;16.40;99.90;;;;;;4867282;29;20021;-86
2021/10/03 11:21:57;;;;;;;6.35;0.90;;;16.50;99.90;;;;;;4854805;29;20044;-86
2021/10/03 11:24:25;;;;;;;7.00;1.10;;;16.60;99.90;;;;;;4868517;29;20036;-86
2021/10/03 11:26:55;;;;;;;11.00;1.88;;;16.70;99.90;;;;;;4865735;29;20046;-87
2021/10/03 11:29:26;;;;;;;7.68;1.30;;;16.80;99.90;;;;;;4858652;29;20037;-86
2021/10/03 11:31:55;;;;;;;6.13;1.15;;;16.80;99.90;;;;;;4859701;29;20041;-86
2021/10/03 11:34:31;;;;;;;9.65;0.98;;;16.80;99.90;;;;;;4857554;29;20052;-86
2021/10/03 11:36:59;;;;;;;6.93;1.00;;;16.80;99.90;;;;;;4865961;29;20018;-86
2021/10/03 11:39:41;;;;;;;3.88;0.90;;;16.90;99.90;;;;;;4857492;29;20045;-86
2021/10/03 11:42:08;;;;;;;4.78;0.80;;;17.00;99.90;;;;;;4854462;29;20049;-86
2021/10/03 11:44:36;;;;;;;7.85;0.60;;;17.10;99.90;;;;;;4849285;29;20100;-87
2021/10/03 11:47:14;;;;;;;6.95;0.90;;;17.20;99.90;;;;;;4859594;29;20026;-86
2021/10/03 11:49:45;;;;;;;10.10;0.85;;;17.20;99.90;;;;;;4857201;29;20037;-86
2021/10/03 11:52:14;;;;;;;8.25;1.20;;;17.10;99.90;;;;;;4856500;29;20021;-87
2021/10/03 11:54:46;;;;;;;5.88;0.90;;;17.10;99.90;;;;;;4849573;29;20041;-86
2021/10/03 11:57:29;;;;;;;5.45;0.95;;;16.90;99.90;;;;;;4850890;29;20025;-86
2021/10/03 12:00:08;;;;;;;4.53;0.77;;;16.70;99.90;;;;;;4863132;29;20066;-86
2021/10/03 12:02:39;;;;;;;8.38;1.20;;;16.60;99.90;;;;;;4859410;29;20024;-86
2021/10/03 12:05:07;;;;;;;6.28;0.85;;;16.60;99.90;;;;;;4860824;29;20086;-87
2021/10/03 12:07:33;;;;;;;6.57;0.85;;;16.90;99.90;;;;;;4861818;29;20029;-86
2021/10/03 12:10:14;;;;;;;6.72;0.95;;;17.00;99.90;;;;;;4859292;29;20053;-86
2021/10/03 12:12:52;;;;;;;5.70;1.08;;;17.20;99.90;;;;;;4857033;29;20037;-86
2021/10/03 12:15:39;;;;;;;9.02;0.98;;;17.40;99.90;;;;;;4859119;29;20448;-86
2021/10/03 12:18:06;;;;;;;4.88;0.65;;;17.60;99.90;;;;;;4856447;29;20336;-86
2021/10/03 12:20:54;;;;;;;4.53;0.80;;;17.40;99.90;;;;;;4858280;29;20387;-86
2021/10/03 12:23:38;;;;;;;8.52;1.90;;;17.40;99.90;;;;;;4843101;29;20017;-86
2021/10/03 12:26:14;;;;;;;4.97;0.90;;;17.50;99.90;;;;;;4859110;29;20060;-86
2021/10/03 12:29:13;;;;;;;3.97;0.80;;;17.40;99.90;;;;;;4852491;29;20496;-86
2021/10/03 12:31:47;;;;;;;5.95;0.88;;;17.50;99.90;;;;;;4851266;29;20080;-87
2021/10/03 12:34:15;;;;;;;6.60;1.67;;;17.50;99.90;;;;;;4858926;29;20111;-85
2021/10/03 12:36:57;;;;;;;6.65;1.50;;;17.70;99.90;;;;;;4860898;29;20331;-86
2021/10/03 12:39:28;;;;;;;8.90;0.98;;;17.60;99.90;;;;;;4863799;29;20026;-85
2021/10/03 12:41:56;;;;;;;4.95;0.90;;;17.50;99.90;;;;;;4860834;29;20037;-85
2021/10/03 12:44:29;;;;;;;8.57;1.20;;;17.70;99.90;;;;;;4858897;29;20078;-85
2021/10/03 12:46:55;;;;;;;5.18;0.70;;;17.90;99.90;;;;;;4858286;29;20029;-87
2021/10/03 12:49:21;;;;;;;6.75;1.25;;;18.00;99.90;;;;;;4858756;29;20033;-85